createdAt,value
2023-02-11T00:04:23.663Z,8.63
2023-02-11T00:09:26.363Z,6.97
2023-02-11T00:14:29.170Z,9.22
2023-02-11T00:19:31.966Z,7.20
2023-02-11T00:24:36.448Z,7.81
2023-02-11T00:29:39.557Z,7.71
2023-02-11T00:34:42.312Z,7.90
2023-02-11T00:39:45.024Z,7.90
2023-02-11T00:44:47.759Z,7.85
2023-02-11T00:49:50.509Z,7.35
2023-02-11T00:54:53.235Z,7.46
2023-02-11T00:59:56.013Z,8.18
2023-02-11T01:05:00.137Z,7.17
2023-02-11T01:10:04.492Z,8.00
2023-02-11T01:15:09.163Z,7.17
2023-02-11T01:20:17.253Z,7.81
2023-02-11T01:25:20.148Z,7.07
2023-02-11T01:30:23.150Z,7.74
2023-02-11T01:35:25.966Z,7.30
2023-02-11T01:40:28.764Z,8.00
2023-02-11T01:45:47.283Z,7.81
2023-02-11T01:50:55.047Z,7.41
2023-02-11T01:56:17.405Z,7.92
2023-02-11T02:01:26.863Z,6.78
2023-02-11T02:06:35.713Z,7.57
2023-02-11T02:11:38.508Z,7.07
2023-02-11T02:16:41.537Z,7.24
2023-02-11T02:22:25.173Z,7.11
2023-02-11T02:27:56.425Z,7.69
2023-02-11T02:33:23.422Z,6.54
2023-02-11T02:38:46.589Z,7.59
2023-02-11T02:43:51.492Z,7.32
2023-02-11T02:48:55.756Z,7.76
2023-02-11T02:54:05.549Z,6.84
2023-02-11T02:59:23.639Z,6.53
2023-02-11T03:04:38.058Z,7.25
2023-02-11T03:09:48.499Z,7.16
2023-02-11T03:14:52.173Z,7.37
2023-02-11T03:19:57.356Z,6.28
2023-02-11T03:25:02.005Z,7.30
2023-02-11T03:30:18.863Z,7.07
2023-02-11T03:35:32.986Z,7.10
2023-02-11T03:40:38.435Z,7.01
2023-02-11T03:45:41.474Z,7.12
2023-02-11T03:50:47.310Z,7.03
2023-02-11T03:55:52.127Z,7.36
2023-02-11T04:00:55.133Z,6.53
2023-02-11T04:05:57.975Z,7.08
2023-02-11T04:11:00.774Z,6.96
2023-02-11T04:16:03.697Z,7.68
2023-02-11T04:21:06.583Z,6.36
2023-02-11T04:26:09.294Z,7.57
2023-02-11T04:31:13.007Z,6.10
2023-02-11T04:36:15.895Z,7.24
2023-02-11T04:41:18.630Z,6.75
2023-02-11T04:46:21.479Z,6.99
2023-02-11T04:51:24.543Z,7.18
2023-02-11T04:56:27.247Z,6.43
2023-02-11T05:01:30.158Z,7.18
2023-02-11T05:06:33.062Z,6.91
2023-02-11T05:11:36.948Z,7.16
2023-02-11T05:16:39.688Z,6.74
2023-02-11T05:21:53.140Z,7.39
2023-02-11T05:27:00.157Z,7.74
2023-02-11T05:32:02.899Z,7.44
2023-02-11T05:37:05.696Z,7.53
2023-02-11T05:42:08.706Z,7.87
2023-02-11T05:47:11.509Z,6.86
2023-02-11T05:52:14.511Z,7.78
2023-02-11T05:57:18.033Z,7.00
2023-02-11T06:02:20.811Z,7.40
2023-02-11T06:07:23.735Z,7.05
2023-02-11T06:12:27.356Z,8.16
2023-02-11T06:17:33.760Z,6.96
2023-02-11T06:22:36.643Z,7.36
2023-02-11T06:27:39.767Z,7.39
2023-02-11T06:32:44.921Z,7.79
2023-02-11T06:37:49.763Z,8.06
2023-02-11T06:42:52.752Z,7.01
2023-02-11T06:47:55.675Z,7.66
2023-02-11T06:53:01.546Z,7.84
2023-02-11T06:58:04.277Z,7.16
2023-02-11T07:03:07.087Z,7.03
2023-02-11T07:08:10.050Z,7.95
2023-02-11T07:13:12.827Z,8.51
2023-02-11T07:18:15.778Z,6.94
2023-02-11T07:23:18.473Z,7.45
2023-02-11T07:28:21.213Z,8.18
2023-02-11T07:33:24.041Z,7.18
2023-02-11T07:38:27.468Z,7.33
2023-02-11T07:43:31.582Z,8.38
2023-02-11T07:48:34.842Z,7.23
2023-02-11T07:53:37.918Z,7.86
2023-02-11T07:58:44.240Z,7.78
2023-02-11T08:03:46.978Z,7.69
2023-02-11T08:08:50.221Z,7.83
2023-02-11T08:13:53.749Z,7.93
2023-02-11T08:18:57.817Z,7.71
2023-02-11T08:24:03.233Z,7.85
2023-02-11T08:29:10.226Z,7.86
2023-02-11T08:34:14.559Z,7.72
2023-02-11T08:39:20.770Z,7.32
2023-02-11T08:44:25.163Z,7.50
2023-02-11T08:49:28.185Z,7.76
2023-02-11T08:54:31.581Z,7.98
2023-02-11T08:59:34.654Z,8.44
2023-02-11T09:04:37.360Z,8.87
2023-02-11T09:09:40.071Z,8.19
2023-02-11T09:14:43.138Z,8.54
2023-02-11T09:19:46.013Z,8.91
2023-02-11T09:24:48.962Z,9.23
2023-02-11T09:29:51.886Z,8.39
2023-02-11T09:34:54.594Z,8.24
2023-02-11T09:39:57.292Z,8.39
2023-02-11T09:45:03.916Z,8.68
2023-02-11T09:50:18.484Z,8.73
2023-02-11T09:55:39.166Z,8.77
2023-02-11T10:01:02.608Z,8.70
2023-02-11T10:06:28.437Z,8.94
2023-02-11T10:11:48.956Z,9.16
2023-02-11T10:17:31.900Z,8.85
2023-02-11T10:22:45.728Z,9.21
2023-02-11T10:27:49.713Z,9.23
2023-02-11T10:32:59.858Z,9.64
2023-02-11T10:38:02.764Z,8.46
2023-02-11T10:43:11.634Z,9.14
2023-02-11T10:48:36.480Z,9.56
2023-02-11T10:53:39.928Z,9.08
2023-02-11T10:58:59.081Z,8.36
2023-02-11T11:04:01.933Z,9.16
2023-02-11T11:09:04.746Z,9.74
2023-02-11T11:14:20.426Z,9.32
2023-02-11T11:19:25.481Z,9.32
2023-02-11T11:24:44.161Z,9.16
2023-02-11T11:29:50.334Z,9.45
2023-02-11T11:35:00.422Z,9.39
2023-02-11T11:40:09.562Z,9.63
2023-02-11T11:45:15.331Z,9.30
2023-02-11T11:50:34.295Z,9.71
2023-02-11T11:55:43.616Z,9.94
2023-02-11T12:01:01.986Z,9.70
2023-02-11T12:06:39.257Z,9.94
2023-02-11T12:11:58.316Z,9.82
2023-02-11T12:17:17.465Z,10.16
2023-02-11T12:22:30.140Z,10.64
2023-02-11T12:27:45.227Z,10.37
2023-02-11T12:33:25.152Z,10.32
2023-02-11T12:38:32.634Z,10.37
2023-02-11T12:43:40.828Z,10.61
2023-02-11T12:49:01.959Z,10.13
2023-02-11T12:54:11.049Z,10.89
2023-02-11T12:59:30.530Z,11.32
2023-02-11T13:04:42.132Z,10.30
2023-02-11T13:09:51.523Z,10.62
2023-02-11T13:14:58.666Z,10.83
2023-02-11T13:20:15.029Z,10.76
2023-02-11T13:25:43.178Z,10.84
2023-02-11T13:30:52.023Z,10.59
2023-02-11T13:36:04.754Z,10.85
2023-02-11T13:41:42.730Z,11.46
2023-02-11T13:47:06.070Z,11.18
2023-02-11T13:52:25.829Z,11.20
2023-02-11T13:57:34.878Z,11.37
2023-02-11T14:02:58.470Z,11.32
2023-02-11T14:08:26.429Z,11.45
2023-02-11T14:13:30.841Z,11.67
2023-02-11T14:18:50.004Z,11.95
2023-02-11T14:23:56.213Z,11.65
2023-02-11T14:29:21.097Z,11.80
2023-02-11T14:34:49.740Z,11.65
2023-02-11T14:40:23.976Z,11.80
2023-02-11T14:45:29.238Z,12.37
2023-02-11T14:50:38.768Z,12.43
2023-02-11T14:55:44.609Z,12.59
2023-02-11T15:01:09.261Z,11.31
2023-02-11T15:06:19.866Z,12.08
2023-02-11T15:11:25.422Z,12.61
2023-02-11T15:16:29.151Z,12.62
2023-02-11T15:21:34.653Z,11.30
2023-02-11T15:26:37.422Z,12.22
2023-02-11T15:31:40.245Z,12.60
2023-02-11T15:36:43.348Z,12.35
2023-02-11T15:41:46.347Z,12.42
2023-02-11T15:46:49.144Z,11.31
2023-02-11T15:51:53.956Z,12.58
2023-02-11T15:57:04.581Z,11.54
2023-02-11T16:02:17.906Z,12.43
2023-02-11T16:07:49.924Z,11.82
2023-02-11T16:12:52.820Z,12.31
2023-02-11T16:17:55.662Z,12.12
2023-02-11T16:22:58.809Z,11.38
2023-02-11T16:28:01.704Z,12.43
2023-02-11T16:33:05.560Z,11.53
2023-02-11T16:38:08.345Z,12.82
2023-02-11T16:43:11.143Z,11.11
2023-02-11T16:48:18.683Z,12.47
2023-02-11T16:53:24.591Z,11.06
2023-02-11T16:58:27.435Z,12.57
2023-02-11T17:03:31.566Z,10.73
2023-02-11T17:08:34.265Z,12.47
2023-02-11T17:13:37.180Z,10.98
2023-02-11T17:18:39.913Z,12.09
2023-02-11T17:23:43.035Z,10.72
2023-02-11T17:28:47.614Z,11.94
2023-02-11T17:33:50.540Z,10.48
2023-02-11T17:38:55.151Z,11.61
2023-02-11T17:43:59.075Z,9.86
2023-02-11T17:49:02.800Z,11.52
2023-02-11T17:54:09.091Z,9.50
2023-02-11T17:59:13.497Z,10.86
2023-02-11T18:04:18.442Z,8.64
2023-02-11T18:09:21.403Z,10.28
2023-02-11T18:14:24.714Z,9.75
2023-02-11T18:19:30.674Z,9.36
2023-02-11T18:24:33.418Z,8.88
2023-02-11T18:29:36.281Z,9.50
2023-02-11T18:34:40.871Z,9.16
2023-02-11T18:39:43.729Z,8.08
2023-02-11T18:44:46.635Z,10.14
2023-02-11T18:49:49.328Z,7.41
2023-02-11T18:54:52.544Z,8.85
2023-02-11T18:59:55.299Z,7.14
2023-02-11T19:04:58.226Z,9.04
2023-02-11T19:10:01.027Z,8.80
2023-02-11T19:15:04.452Z,7.03
2023-02-11T19:20:08.410Z,9.39
2023-02-11T19:25:12.239Z,6.76
2023-02-11T19:30:15.119Z,8.03
2023-02-11T19:35:19.429Z,8.00
2023-02-11T19:40:22.268Z,6.05
2023-02-11T19:45:26.593Z,8.80
2023-02-11T19:50:29.395Z,6.52
2023-02-11T19:55:34.864Z,7.26
2023-02-11T20:00:37.590Z,8.03
2023-02-11T20:05:42.409Z,5.59
2023-02-11T20:10:45.217Z,8.13
2023-02-11T20:15:48.081Z,7.46
2023-02-11T20:20:50.907Z,6.85
2023-02-11T20:25:54.311Z,9.02
2023-02-11T20:30:58.493Z,6.35
2023-02-11T20:36:05.436Z,6.62
2023-02-11T20:41:20.441Z,8.25
2023-02-11T20:46:25.987Z,5.86
2023-02-11T20:51:31.628Z,8.33
2023-02-11T20:56:37.022Z,6.39
2023-02-11T21:01:43.568Z,7.29
2023-02-11T21:06:49.168Z,8.27
2023-02-11T21:11:52.668Z,5.81
2023-02-11T21:16:56.066Z,8.24
2023-02-11T21:22:00.802Z,8.03
2023-02-11T21:27:03.990Z,6.11
2023-02-11T21:32:06.823Z,8.86
2023-02-11T21:37:09.635Z,7.25
2023-02-11T21:42:12.377Z,6.20
2023-02-11T21:47:15.104Z,8.72
2023-02-11T21:52:17.893Z,6.47
2023-02-11T21:57:20.704Z,6.53
2023-02-11T22:02:23.477Z,9.01
2023-02-11T22:07:28.181Z,6.54
2023-02-11T22:12:31.000Z,4.82
2023-02-11T22:17:34.350Z,7.61
2023-02-11T22:22:37.258Z,8.52
2023-02-11T22:27:40.050Z,6.04
2023-02-11T22:32:42.746Z,6.70
2023-02-11T22:37:45.561Z,9.09
2023-02-11T22:42:48.369Z,6.65
2023-02-11T22:47:51.135Z,5.03
2023-02-11T22:52:53.848Z,7.81
2023-02-11T22:57:56.561Z,8.49
2023-02-11T23:02:59.382Z,5.72
2023-02-11T23:08:02.253Z,6.51
2023-02-11T23:13:06.480Z,8.56
2023-02-11T23:18:09.924Z,5.78
2023-02-11T23:23:12.706Z,5.87
2023-02-11T23:28:15.497Z,8.38
2023-02-11T23:33:18.509Z,5.97
2023-02-11T23:38:21.224Z,4.95
2023-02-11T23:43:24.441Z,8.25
2023-02-11T23:48:27.534Z,6.34
2023-02-11T23:53:30.542Z,5.72
2023-02-11T23:58:33.219Z,7.39
